Time;durP1;ratioP1;P1;durP2;ratioP2;P2;SDS_P1;SDS_P2;PMS_P1;PMS_P2;Temp;Humidity;BMP_temperature;BMP_pressure;BME280_temperature;BME280_humidity;BME280_pressure;Samples;Min_cycle;Max_cycle;Signal;HPM_P1;HPM_P2
2022/11/26 00:02:27;;;;;;;23.73;9.27;;;5.50;99.90;;;;;;4784025;29;20034;-82
2022/11/26 00:04:55;;;;;;;22.73;7.90;;;5.50;99.90;;;;;;4801803;29;20046;-81
2022/11/26 00:07:25;;;;;;;26.10;7.95;;;5.50;99.90;;;;;;4802295;29;20704;-82
2022/11/26 00:09:52;;;;;;;21.20;8.05;;;5.50;99.90;;;;;;4799119;29;20490;-82
2022/11/26 00:12:31;;;;;;;23.08;7.85;;;5.50;99.90;;;;;;4802496;29;20077;-81
2022/11/26 00:14:58;;;;;;;25.13;8.30;;;5.40;99.90;;;;;;4801268;29;20046;-82
2022/11/26 00:17:24;;;;;;;19.58;8.32;;;5.50;99.90;;;;;;4802484;29;20145;-82
2022/11/26 00:19:49;;;;;;;25.13;9.32;;;5.40;99.90;;;;;;4802561;29;20610;-81
2022/11/26 00:22:28;;;;;;;24.77;8.38;;;5.40;99.90;;;;;;4804072;29;20056;-81
2022/11/26 00:24:55;;;;;;;23.48;8.88;;;5.40;99.90;;;;;;4804731;29;20050;-82
2022/11/26 00:27:24;;;;;;;23.10;10.18;;;5.40;99.90;;;;;;4804511;29;20052;-82
2022/11/26 00:29:50;;;;;;;16.23;7.55;;;5.40;99.90;;;;;;4822329;29;20073;-82
2022/11/26 00:32:19;;;;;;;25.73;8.82;;;5.40;99.90;;;;;;4786192;29;20070;-82
2022/11/26 00:34:45;;;;;;;22.15;8.20;;;5.40;99.90;;;;;;4805557;29;20042;-82
2022/11/26 00:37:23;;;;;;;23.67;8.82;;;5.40;99.90;;;;;;4801705;29;20107;-82
2022/11/26 00:39:50;;;;;;;22.80;8.80;;;5.40;99.90;;;;;;4801516;29;20074;-82
2022/11/26 00:42:16;;;;;;;20.73;8.90;;;5.30;99.90;;;;;;4807603;29;20042;-82
2022/11/26 00:44:42;;;;;;;22.70;9.25;;;5.40;99.90;;;;;;4787444;29;20042;-82
2022/11/26 00:47:11;;;;;;;20.52;9.45;;;5.60;99.90;;;;;;4789062;29;20046;-82
2022/11/26 00:49:37;;;;;;;25.73;10.20;;;5.30;99.90;;;;;;4806021;29;20718;-82
2022/11/26 00:52:04;;;;;;;27.80;8.80;;;5.30;99.90;;;;;;4807933;29;20046;-82
2022/11/26 00:54:30;;;;;;;23.60;10.18;;;5.30;99.90;;;;;;4788602;29;20046;-82
2022/11/26 00:56:56;;;;;;;25.77;10.88;;;5.30;99.90;;;;;;4805583;29;20072;-82
2022/11/26 00:59:22;;;;;;;25.55;9.07;;;5.30;99.90;;;;;;4785539;29;20050;-82
2022/11/26 01:01:48;;;;;;;21.52;9.55;;;5.30;99.90;;;;;;4804601;29;20101;-82
2022/11/26 01:04:14;;;;;;;19.55;9.75;;;5.40;99.90;;;;;;4804841;29;20056;-82
2022/11/26 01:06:41;;;;;;;24.20;8.45;;;5.30;99.90;;;;;;4783525;29;20048;-82
2022/11/26 01:09:19;;;;;;;25.27;10.00;;;5.30;99.90;;;;;;4804731;29;20046;-82
2022/11/26 01:11:45;;;;;;;15.93;8.45;;;5.30;99.90;;;;;;4790835;29;20046;-82
2022/11/26 01:14:16;;;;;;;22.98;9.50;;;5.20;99.90;;;;;;4786282;29;20058;-81
2022/11/26 01:16:43;;;;;;;23.95;9.13;;;5.30;99.90;;;;;;4804354;29;20107;-81
2022/11/26 01:19:11;;;;;;;25.30;9.32;;;5.20;99.90;;;;;;4802990;29;20047;-82
2022/11/26 01:21:37;;;;;;;24.67;10.57;;;5.20;99.90;;;;;;4806068;29;20093;-82
2022/11/26 01:24:03;;;;;;;22.05;9.95;;;5.20;99.90;;;;;;4804285;29;20046;-81
2022/11/26 01:26:37;;;;;;;28.83;10.00;;;5.20;99.90;;;;;;4804644;29;20061;-82
2022/11/26 01:29:02;;;;;;;32.53;9.55;;;5.20;99.90;;;;;;4805793;29;20038;-81
2022/11/26 01:31:29;;;;;;;29.13;10.75;;;5.20;99.90;;;;;;4804962;29;20868;-82
2022/11/26 01:33:55;;;;;;;22.27;10.10;;;5.10;99.90;;;;;;4805724;29;20785;-82
2022/11/26 01:36:24;;;;;;;22.30;9.68;;;5.10;99.90;;;;;;4819282;29;20134;-82
2022/11/26 01:38:52;;;;;;;28.35;9.32;;;5.10;99.90;;;;;;4805487;29;20035;-82
2022/11/26 01:41:51;;;;;;;22.77;9.88;;;5.00;99.90;;;;;;4818640;29;20409;-82
2022/11/26 01:44:31;;;;;;;26.20;11.60;;;5.10;99.90;;;;;;4805514;29;20050;-82
2022/11/26 01:46:58;;;;;;;17.00;8.38;;;5.10;99.90;;;;;;4819438;29;20046;-81
2022/11/26 01:49:33;;;;;;;21.92;9.90;;;5.00;99.90;;;;;;4787618;29;20485;-82
2022/11/26 01:52:23;;;;;;;21.33;9.90;;;5.10;99.90;;;;;;4790198;29;20053;-82
2022/11/26 01:54:52;;;;;;;27.65;11.27;;;5.00;99.90;;;;;;4801904;29;20042;-82
2022/11/26 01:57:20;;;;;;;23.45;9.77;;;5.00;99.90;;;;;;4805762;29;20132;-82
2022/11/26 01:59:52;;;;;;;24.67;10.50;;;5.00;99.90;;;;;;4805082;29;20088;-81
2022/11/26 02:02:20;;;;;;;18.95;9.35;;;5.00;99.90;;;;;;4804148;29;20047;-81
2022/11/26 02:04:55;;;;;;;26.90;11.23;;;4.90;99.90;;;;;;4805490;29;20141;-82
2022/11/26 02:07:21;;;;;;;23.50;10.02;;;4.90;99.90;;;;;;4800827;29;20057;-82
2022/11/26 02:09:46;;;;;;;22.25;10.25;;;4.90;99.90;;;;;;4801874;29;20035;-82
2022/11/26 02:12:12;;;;;;;23.58;10.27;;;4.90;99.90;;;;;;4804804;29;20111;-81
2022/11/26 02:14:42;;;;;;;20.33;10.25;;;4.90;99.90;;;;;;4803155;29;20050;-82
2022/11/26 02:17:35;;;;;;;29.42;10.63;;;4.90;99.90;;;;;;4805185;29;20064;-82
2022/11/26 02:20:29;;;;;;;22.15;10.05;;;5.50;99.90;;;;;;4817036;29;20058;-81
2022/11/26 02:23:10;;;;;;;26.20;9.93;;;4.90;99.90;;;;;;4805880;29;20047;-82
2022/11/26 02:25:57;;;;;;;27.52;10.15;;;4.80;99.90;;;;;;4819291;29;20035;-82
2022/11/26 02:28:29;;;;;;;23.85;10.10;;;4.80;99.90;;;;;;4803291;29;20046;-81
2022/11/26 02:31:01;;;;;;;25.48;9.70;;;4.80;99.90;;;;;;4802707;29;20053;-82
2022/11/26 02:33:41;;;;;;;30.40;11.82;;;4.80;99.90;;;;;;4782405;29;20050;-81
2022/11/26 02:36:38;;;;;;;19.67;10.27;;;4.70;99.90;;;;;;4804602;29;20467;-82
2022/11/26 02:39:21;;;;;;;24.83;10.27;;;4.70;99.90;;;;;;4789306;29;20052;-82
2022/11/26 02:41:50;;;;;;;24.70;10.18;;;4.70;99.90;;;;;;4805199;29;20638;-83
2022/11/26 02:44:22;;;;;;;31.23;11.80;;;4.70;99.90;;;;;;4804192;29;20046;-82
2022/11/26 02:46:53;;;;;;;24.55;9.68;;;4.70;99.90;;;;;;4790356;29;20086;-82
2022/11/26 02:49:20;;;;;;;20.65;10.30;;;4.70;99.90;;;;;;4780545;29;20099;-82
2022/11/26 02:51:54;;;;;;;23.92;9.77;;;4.70;99.90;;;;;;4803499;29;20398;-82
2022/11/26 02:54:21;;;;;;;19.10;9.77;;;4.70;99.90;;;;;;4803445;29;20061;-81
2022/11/26 02:56:49;;;;;;;21.30;10.00;;;4.60;99.90;;;;;;4818317;29;20402;-82
2022/11/26 02:59:15;;;;;;;25.77;9.73;;;4.60;99.90;;;;;;4801951;29;20077;-80
2022/11/26 03:01:49;;;;;;;18.70;8.95;;;4.60;99.90;;;;;;4801655;29;20379;-82
2022/11/26 03:04:25;;;;;;;24.67;8.88;;;4.60;99.90;;;;;;4804284;29;20053;-82
2022/11/26 03:06:53;;;;;;;18.15;9.30;;;4.60;99.90;;;;;;4817388;29;20050;-82
2022/11/26 03:09:21;;;;;;;14.80;7.30;;;4.50;99.90;;;;;;4818613;29;20089;-82
2022/11/26 03:11:47;;;;;;;19.42;7.68;;;4.50;99.90;;;;;;4818028;29;20050;-82
2022/11/26 03:14:12;;;;;;;16.48;7.20;;;4.50;99.90;;;;;;4803450;29;20487;-82
2022/11/26 03:16:38;;;;;;;26.00;8.15;;;4.50;99.90;;;;;;4802988;29;20043;-82
2022/11/26 03:19:03;;;;;;;17.52;8.27;;;4.40;99.90;;;;;;4818717;29;20046;-82
2022/11/26 03:21:34;;;;;;;18.40;8.50;;;4.40;99.90;;;;;;4804365;29;20053;-81
2022/11/26 03:23:59;;;;;;;23.58;8.98;;;4.40;99.90;;;;;;4802657;29;20038;-82
2022/11/26 03:26:25;;;;;;;14.40;8.18;;;4.40;99.90;;;;;;4819135;29;20053;-81
2022/11/26 03:28:50;;;;;;;17.52;7.85;;;4.40;99.90;;;;;;4804149;29;20054;-82
2022/11/26 03:31:16;;;;;;;21.63;7.20;;;4.40;99.90;;;;;;4803812;29;20039;-82
2022/11/26 03:33:42;;;;;;;21.20;7.70;;;4.40;99.90;;;;;;4799108;29;20046;-82
2022/11/26 03:36:07;;;;;;;17.88;7.70;;;4.40;99.90;;;;;;4801487;29;20100;-82
2022/11/26 03:38:36;;;;;;;18.65;7.03;;;4.30;99.90;;;;;;4801313;29;20121;-82
2022/11/26 03:41:03;;;;;;;17.90;6.40;;;4.30;99.90;;;;;;4800374;29;20130;-80
2022/11/26 03:43:28;;;;;;;14.07;5.85;;;4.30;99.90;;;;;;4800449;29;20945;-82
2022/11/26 03:45:54;;;;;;;16.70;7.47;;;4.80;99.90;;;;;;4789797;29;20117;-82
2022/11/26 03:48:20;;;;;;;13.45;6.85;;;4.40;99.90;;;;;;4801333;29;20103;-82
2022/11/26 03:50:45;;;;;;;20.88;8.00;;;4.30;99.90;;;;;;4802492;29;20038;-82
2022/11/26 03:53:11;;;;;;;14.38;6.82;;;4.30;99.90;;;;;;4803636;29;20124;-83
2022/11/26 03:55:39;;;;;;;18.00;6.45;;;4.30;99.90;;;;;;4799062;29;20117;-81
2022/11/26 03:58:05;;;;;;;22.77;7.68;;;4.30;99.90;;;;;;4803700;29;20418;-82
2022/11/26 04:00:30;;;;;;;17.10;6.60;;;4.30;99.90;;;;;;4798091;29;20042;-82
2022/11/26 04:02:56;;;;;;;17.63;7.22;;;4.30;99.90;;;;;;4767661;29;20124;-82
2022/11/26 04:05:21;;;;;;;21.05;7.18;;;4.30;99.90;;;;;;4788676;29;20428;-82
2022/11/26 04:07:47;;;;;;;22.17;7.15;;;4.40;99.90;;;;;;4802353;29;20042;-82
2022/11/26 04:10:12;;;;;;;22.48;7.60;;;4.30;99.90;;;;;;4788885;29;20069;-80
2022/11/26 04:12:38;;;;;;;15.75;5.88;;;4.30;99.90;;;;;;4803379;29;20430;-83
2022/11/26 04:15:04;;;;;;;20.25;8.23;;;4.30;99.90;;;;;;4802250;29;20050;-82
2022/11/26 04:17:29;;;;;;;17.65;7.93;;;4.30;99.90;;;;;;4802302;29;20483;-82
2022/11/26 04:19:55;;;;;;;25.38;8.63;;;4.30;99.90;;;;;;4784703;29;20573;-81
2022/11/26 04:22:20;;;;;;;28.45;8.82;;;4.30;99.90;;;;;;4802092;29;22785;-82
2022/11/26 04:24:46;;;;;;;16.73;8.18;;;4.30;99.90;;;;;;4802351;29;20042;-82
2022/11/26 04:27:11;;;;;;;18.02;6.90;;;4.30;99.90;;;;;;4783083;29;20054;-82
2022/11/26 04:29:37;;;;;;;19.75;7.05;;;4.30;99.90;;;;;;4803213;29;20043;-82
2022/11/26 04:32:03;;;;;;;12.52;7.60;;;4.30;99.90;;;;;;4798722;29;20406;-82
2022/11/26 04:34:29;;;;;;;13.00;6.28;;;4.30;99.90;;;;;;4817973;29;20114;-82
2022/11/26 04:36:55;;;;;;;24.17;7.63;;;4.30;99.90;;;;;;4802278;29;20568;-82
2022/11/26 04:39:20;;;;;;;24.90;7.28;;;4.30;99.90;;;;;;4783908;29;20039;-81
2022/11/26 04:41:46;;;;;;;14.50;6.85;;;4.30;99.90;;;;;;4799614;29;20034;-81
2022/11/26 04:44:11;;;;;;;22.98;7.82;;;4.20;99.90;;;;;;4802985;29;20149;-82
2022/11/26 04:46:37;;;;;;;18.65;6.90;;;4.30;99.90;;;;;;4786204;29;20509;-81
2022/11/26 04:49:03;;;;;;;22.45;7.97;;;4.20;99.90;;;;;;4800648;29;20131;-82
2022/11/26 04:51:29;;;;;;;21.80;8.27;;;4.20;99.90;;;;;;4783763;29;20046;-82
2022/11/26 04:53:55;;;;;;;21.25;8.95;;;4.20;99.90;;;;;;4796410;29;20057;-82
2022/11/26 04:56:21;;;;;;;23.40;8.27;;;4.20;99.90;;;;;;4802936;29;20117;-82
2022/11/26 04:58:46;;;;;;;26.05;9.27;;;4.10;99.90;;;;;;4781067;29;20110;-81
2022/11/26 05:01:12;;;;;;;21.02;9.60;;;4.20;99.90;;;;;;4802777;29;20463;-83
2022/11/26 05:03:37;;;;;;;19.13;7.90;;;4.20;99.90;;;;;;4785289;29;20620;-82
2022/11/26 05:06:03;;;;;;;23.48;9.20;;;4.20;99.90;;;;;;4782831;29;20140;-82
2022/11/26 05:08:29;;;;;;;24.83;8.38;;;4.20;99.90;;;;;;4816482;29;20046;-83
2022/11/26 05:10:55;;;;;;;18.98;9.32;;;4.20;99.90;;;;;;4802708;29;20051;-83
2022/11/26 05:13:20;;;;;;;18.08;8.82;;;4.20;99.90;;;;;;4791511;29;20055;-83
2022/11/26 05:15:46;;;;;;;22.77;8.00;;;4.10;99.90;;;;;;4804658;29;20046;-83
2022/11/26 05:18:12;;;;;;;15.98;6.72;;;4.10;99.90;;;;;;4804780;29;20054;-83
2022/11/26 05:20:37;;;;;;;18.65;8.35;;;4.10;99.90;;;;;;4804607;29;20034;-82
2022/11/26 05:23:03;;;;;;;23.02;8.65;;;4.10;99.90;;;;;;4805332;29;20046;-83
2022/11/26 05:25:29;;;;;;;23.75;9.00;;;3.90;99.90;;;;;;4804915;29;20095;-82
2022/11/26 05:27:54;;;;;;;26.52;9.25;;;4.00;99.90;;;;;;4805387;29;20042;-82
2022/11/26 05:30:20;;;;;;;25.50;9.15;;;4.10;99.90;;;;;;4806826;29;20521;-82
2022/11/26 05:32:45;;;;;;;18.15;8.75;;;4.00;99.90;;;;;;4806651;29;20601;-81
2022/11/26 05:35:11;;;;;;;17.33;9.02;;;4.00;99.90;;;;;;4807146;29;20050;-81
2022/11/26 05:37:36;;;;;;;21.70;9.40;;;4.00;99.90;;;;;;4790181;29;20046;-81
2022/11/26 05:40:03;;;;;;;24.70;12.45;;;4.00;99.90;;;;;;4816153;29;20042;-81
2022/11/26 05:42:29;;;;;;;15.88;9.13;;;3.90;99.90;;;;;;4804575;29;20046;-82
2022/11/26 05:44:54;;;;;;;29.13;9.98;;;3.90;99.90;;;;;;4805455;29;20973;-81
2022/11/26 05:47:20;;;;;;;16.13;8.52;;;3.90;99.90;;;;;;4788838;29;20399;-81
2022/11/26 05:49:46;;;;;;;32.72;11.15;;;3.90;99.90;;;;;;4789451;29;20042;-81
2022/11/26 05:52:11;;;;;;;19.83;8.90;;;3.90;99.90;;;;;;4787822;29;20058;-82
2022/11/26 05:54:37;;;;;;;18.42;10.10;;;4.00;99.90;;;;;;4804900;29;20050;-80
2022/11/26 05:57:02;;;;;;;18.70;9.80;;;4.00;99.90;;;;;;4819126;29;20122;-81
2022/11/26 05:59:28;;;;;;;26.10;9.70;;;4.00;99.90;;;;;;4801855;29;20078;-82
2022/11/26 06:01:54;;;;;;;28.40;11.30;;;4.00;99.90;;;;;;4800959;29;20513;-80
2022/11/26 06:04:19;;;;;;;28.45;12.00;;;4.00;99.90;;;;;;4805405;29;20489;-81
2022/11/26 06:06:45;;;;;;;22.20;11.40;;;4.00;99.90;;;;;;4818237;29;20046;-81
2022/11/26 06:09:10;;;;;;;25.98;10.60;;;4.00;99.90;;;;;;4782093;29;20429;-80
2022/11/26 06:11:36;;;;;;;36.92;13.63;;;4.00;99.90;;;;;;4802974;29;20405;-81
2022/11/26 06:14:03;;;;;;;23.20;12.32;;;4.00;99.90;;;;;;4802290;29;20054;-81
2022/11/26 06:16:32;;;;;;;24.20;11.75;;;4.10;99.90;;;;;;4801962;29;20054;-80
2022/11/26 06:18:58;;;;;;;29.38;12.85;;;4.20;99.90;;;;;;4801292;29;20042;-81
2022/11/26 06:21:23;;;;;;;30.98;13.95;;;4.20;99.90;;;;;;4800366;29;20049;-81
2022/11/26 06:23:49;;;;;;;41.58;15.85;;;4.30;99.90;;;;;;4783746;29;20486;-81
2022/11/26 06:26:14;;;;;;;31.30;13.48;;;4.20;99.90;;;;;;4794564;29;20054;-81
2022/11/26 06:28:40;;;;;;;25.33;12.82;;;4.10;99.90;;;;;;4808517;29;20046;-80
2022/11/26 06:31:07;;;;;;;34.92;14.23;;;4.30;99.90;;;;;;4783751;29;20133;-81
2022/11/26 06:33:33;;;;;;;30.48;15.55;;;4.30;99.90;;;;;;4786393;29;20633;-81
2022/11/26 06:36:03;;;;;;;32.08;15.02;;;4.30;99.90;;;;;;4802294;29;20074;-80
2022/11/26 06:38:29;;;;;;;30.95;13.95;;;4.40;99.90;;;;;;4804118;29;20053;-80
2022/11/26 06:41:03;;;;;;;36.72;14.68;;;4.40;99.90;;;;;;4805525;29;20050;-80
2022/11/26 06:43:30;;;;;;;28.58;14.43;;;4.40;99.90;;;;;;4786184;29;20559;-81
2022/11/26 06:46:03;;;;;;;30.45;13.52;;;4.40;99.90;;;;;;4785268;29;20502;-81
2022/11/26 06:48:29;;;;;;;35.20;12.77;;;4.40;99.90;;;;;;4818462;29;20095;-81
2022/11/26 06:50:55;;;;;;;29.27;13.50;;;4.30;99.90;;;;;;4805134;29;20042;-79
2022/11/26 06:53:20;;;;;;;37.00;15.25;;;4.40;99.90;;;;;;4802165;29;20121;-81
2022/11/26 06:55:49;;;;;;;32.10;14.95;;;4.40;99.90;;;;;;4805578;29;20042;-81
2022/11/26 06:58:15;;;;;;;35.30;15.90;;;4.40;99.90;;;;;;4797346;29;20646;-81
2022/11/26 07:00:41;;;;;;;38.50;15.70;;;4.40;99.90;;;;;;4796446;29;20053;-81
2022/11/26 07:03:07;;;;;;;32.63;15.93;;;4.40;99.90;;;;;;4813672;29;20054;-81
2022/11/26 07:05:34;;;;;;;30.30;15.68;;;4.40;99.90;;;;;;4805819;29;20091;-83
2022/11/26 07:07:59;;;;;;;31.13;15.15;;;4.40;99.90;;;;;;4802347;29;20129;-81
2022/11/26 07:10:25;;;;;;;28.17;14.40;;;4.40;99.90;;;;;;4803634;29;20138;-81
2022/11/26 07:12:51;;;;;;;30.33;15.48;;;4.40;99.90;;;;;;4779718;29;20058;-82
2022/11/26 07:15:16;;;;;;;36.08;16.45;;;4.50;99.90;;;;;;4789467;29;20050;-81
2022/11/26 07:18:04;;;;;;;31.33;14.80;;;4.40;99.90;;;;;;4801918;29;20042;-81
2022/11/26 07:20:29;;;;;;;39.50;16.08;;;4.50;99.90;;;;;;4792890;29;20072;-82
2022/11/26 07:22:55;;;;;;;38.80;15.85;;;4.50;99.90;;;;;;4798803;29;20074;-81
2022/11/26 07:25:22;;;;;;;36.78;17.00;;;4.40;99.90;;;;;;4803664;29;20135;-81
2022/11/26 07:27:47;;;;;;;33.42;15.27;;;4.50;99.90;;;;;;4802868;29;20107;-80
2022/11/26 07:30:13;;;;;;;34.92;15.38;;;4.50;99.90;;;;;;4814272;29;20062;-80
2022/11/26 07:32:42;;;;;;;35.08;14.90;;;4.50;99.90;;;;;;4799658;29;20137;-81
2022/11/26 07:35:08;;;;;;;42.17;16.73;;;5.30;99.90;;;;;;4799822;29;20046;-84
2022/11/26 07:38:01;;;;;;;28.58;14.18;;;4.50;99.90;;;;;;4788450;29;20137;-84
2022/11/26 07:40:26;;;;;;;37.42;15.52;;;4.50;99.90;;;;;;4796800;29;20091;-85
2022/11/26 07:42:54;;;;;;;36.88;14.80;;;4.60;99.90;;;;;;4786115;29;20046;-86
2022/11/26 07:45:20;;;;;;;35.70;16.70;;;4.50;99.90;;;;;;4790055;29;20434;-84
2022/11/26 07:47:45;;;;;;;33.45;14.52;;;4.60;99.90;;;;;;4788705;29;20046;-82
2022/11/26 07:50:11;;;;;;;34.05;14.82;;;4.60;99.90;;;;;;4787297;29;20054;-83
2022/11/26 07:52:36;;;;;;;32.72;14.35;;;4.60;99.90;;;;;;4780117;29;20046;-83
2022/11/26 07:55:04;;;;;;;28.70;14.45;;;4.70;99.90;;;;;;4782119;29;20056;-83
2022/11/26 07:57:30;;;;;;;34.22;14.20;;;4.80;99.90;;;;;;4803756;29;20088;-85
2022/11/26 08:00:02;;;;;;;32.50;14.65;;;4.90;99.90;;;;;;4801676;29;20070;-83
2022/11/26 08:02:53;;;;;;;30.40;13.98;;;4.90;99.90;;;;;;4819498;29;20046;-84
2022/11/26 08:05:18;;;;;;;40.90;18.65;;;4.90;99.90;;;;;;4802425;29;20046;-83
2022/11/26 08:07:53;;;;;;;34.80;16.17;;;5.00;99.90;;;;;;4804104;29;20058;-84
2022/11/26 08:14:18;;;;;;;30.52;13.57;;;5.60;99.90;;;;;;4818804;29;20106;-88
2022/11/26 08:16:47;;;;;;;42.00;14.55;;;5.20;99.90;;;;;;4806198;29;20061;-86
2022/11/26 08:19:13;;;;;;;34.90;12.88;;;5.30;99.90;;;;;;4789222;29;20046;-85
2022/11/26 08:21:39;;;;;;;29.00;11.40;;;5.30;99.90;;;;;;4816395;29;20042;-87
2022/11/26 08:24:22;;;;;;;30.98;11.95;;;5.40;99.90;;;;;;4801301;29;20045;-88
2022/11/26 08:26:48;;;;;;;27.55;11.45;;;5.50;99.90;;;;;;4804632;29;20046;-88
2022/11/26 08:29:14;;;;;;;37.78;12.35;;;6.30;99.90;;;;;;4806130;29;20573;-87
2022/11/26 08:32:04;;;;;;;35.17;11.30;;;5.60;99.90;;;;;;4801450;29;20107;-86
2022/11/26 08:34:42;;;;;;;34.38;11.93;;;5.60;99.90;;;;;;4786942;29;20054;-87
2022/11/26 08:44:35;;;;;;;27.80;11.40;;;5.80;99.90;;;;;;4823563;29;20128;-86
2022/11/26 08:47:09;;;;;;;31.17;11.65;;;5.90;99.90;;;;;;4794210;29;20086;-87
2022/11/26 08:49:35;;;;;;;25.80;11.07;;;6.00;99.90;;;;;;4806170;29;21239;-88
2022/11/26 08:52:06;;;;;;;28.58;11.32;;;6.80;99.90;;;;;;4800064;29;20051;-88
2022/11/26 08:54:47;;;;;;;29.55;11.23;;;5.90;99.90;;;;;;4806773;29;20664;-89
2022/11/26 09:04:34;;;;;;;33.15;10.52;;;6.80;99.90;;;;;;4823234;29;20100;-87
2022/11/26 09:08:19;;;;;;;28.35;10.68;;;6.20;99.90;;;;;;4827386;29;20065;-89
2022/11/26 09:10:57;;;;;;;27.17;10.63;;;6.20;99.90;;;;;;4810445;29;20656;-88
2022/11/26 09:14:07;;;;;;;29.00;10.00;;;6.30;99.90;;;;;;4793023;29;20516;-89
2022/11/26 09:21:09;;;;;;;25.25;10.40;;;6.40;99.90;;;;;;4804943;29;20106;-89
2022/11/26 09:24:21;;;;;;;34.60;10.65;;;6.50;99.90;;;;;;4785078;29;20051;-90
2022/11/26 09:27:48;;;;;;;23.35;10.52;;;6.50;99.90;;;;;;4785082;29;20055;-90
2022/11/26 09:30:16;;;;;;;22.38;10.52;;;6.50;99.90;;;;;;4737508;30;20086;-88
2022/11/26 09:43:45;;;;;;;26.92;10.50;;;6.70;99.90;;;;;;4821130;29;20794;-88
2022/11/26 09:46:56;;;;;;;23.48;10.45;;;6.80;99.90;;;;;;4780624;29;20923;-88
2022/11/26 09:49:24;;;;;;;27.02;10.50;;;7.40;99.90;;;;;;4771669;30;20051;-88
2022/11/26 09:52:23;;;;;;;27.83;11.02;;;7.00;99.90;;;;;;4768958;30;20519;-89
2022/11/26 09:55:22;;;;;;;27.75;11.30;;;7.00;99.90;;;;;;4767182;30;20035;-88
2022/11/26 09:58:41;;;;;;;38.50;11.90;;;7.10;99.90;;;;;;4812895;29;20058;-88
2022/11/26 10:01:20;;;;;;;29.80;11.43;;;7.10;99.90;;;;;;4762528;30;20095;-88
2022/11/26 10:04:34;;;;;;;30.48;10.85;;;7.20;99.90;;;;;;4743987;30;20122;-89
2022/11/26 10:10:56;;;;;;;24.38;11.00;;;7.20;99.90;;;;;;4766313;30;20092;-88
2022/11/26 10:17:09;;;;;;;29.73;11.30;;;7.40;99.90;;;;;;4750815;30;20047;-88
2022/11/26 10:20:08;;;;;;;26.90;11.90;;;7.40;99.90;;;;;;4752314;30;20051;-88
2022/11/26 10:22:43;;;;;;;30.17;12.48;;;7.50;99.90;;;;;;4751050;30;21561;-88
2022/11/26 10:25:20;;;;;;;33.57;12.70;;;7.50;99.90;;;;;;4735341;30;20055;-88
2022/11/26 10:27:48;;;;;;;22.25;11.60;;;7.70;99.90;;;;;;4751770;30;20335;-88
2022/11/26 10:30:29;;;;;;;36.53;13.05;;;7.60;99.90;;;;;;4773606;29;20063;-88
2022/11/26 10:33:01;;;;;;;27.92;12.02;;;8.30;99.90;;;;;;4801284;29;20043;-88
2022/11/26 10:35:29;;;;;;;34.90;13.02;;;7.60;99.90;;;;;;4786853;29;20080;-88
2022/11/26 10:38:01;;;;;;;27.35;11.68;;;7.70;99.90;;;;;;4799714;29;20054;-88
2022/11/26 10:40:36;;;;;;;26.25;12.77;;;7.70;99.90;;;;;;4771370;29;20183;-88
2022/11/26 10:43:04;;;;;;;;;;;7.80;99.90;;;;;;4800419;29;20064;-88
2022/11/26 10:45:56;;;;;;;27.13;10.90;;;7.80;99.90;;;;;;4786074;29;19928;-88
2022/11/26 10:48:31;;;;;;;31.55;12.77;;;7.80;99.90;;;;;;4806726;29;20093;-87
2022/11/26 10:51:02;;;;;;;26.00;12.48;;;7.90;99.90;;;;;;4807590;29;20720;-88
2022/11/26 10:53:49;;;;;;;32.65;13.35;;;8.20;99.90;;;;;;4819267;29;20458;-88
2022/11/26 10:56:21;;;;;;;29.75;13.48;;;9.10;99.90;;;;;;4786432;29;20054;-88
2022/11/26 10:58:49;;;;;;;27.17;12.43;;;8.00;99.90;;;;;;4821627;29;20053;-88
2022/11/26 11:01:15;;;;;;;24.63;11.63;;;8.00;99.90;;;;;;4820934;29;20553;-88
2022/11/26 11:03:56;;;;;;;36.33;12.32;;;8.10;99.90;;;;;;4790027;29;20085;-88
2022/11/26 11:06:27;;;;;;;25.20;11.25;;;8.10;99.90;;;;;;4803930;29;20054;-88
2022/11/26 11:08:53;;;;;;;26.88;12.52;;;8.10;99.90;;;;;;4821755;29;20042;-88
2022/11/26 11:11:25;;;;;;;32.85;12.45;;;8.10;99.90;;;;;;4791260;29;20042;-89
2022/11/26 11:13:51;;;;;;;26.85;12.90;;;8.10;99.90;;;;;;4806308;29;20040;-88
2022/11/26 11:16:36;;;;;;;33.83;12.57;;;8.10;99.90;;;;;;4819926;29;20125;-88
2022/11/26 11:19:04;;;;;;;31.60;14.02;;;8.20;99.90;;;;;;4803976;29;20038;-88
2022/11/26 11:21:42;;;;;;;39.55;13.77;;;8.20;99.90;;;;;;4790268;29;20046;-88
2022/11/26 11:24:22;;;;;;;29.00;14.13;;;8.60;99.90;;;;;;4805637;29;20046;-88
2022/11/26 11:26:56;;;;;;;32.65;13.75;;;8.10;99.90;;;;;;4820279;29;20452;-88
2022/11/26 11:29:32;;;;;;;29.23;14.93;;;8.20;99.90;;;;;;4804399;29;20050;-87
2022/11/26 11:32:38;;;;;;;32.13;14.48;;;8.20;99.90;;;;;;4821149;29;20056;-88
2022/11/26 11:49:20;;;;;;;41.08;17.20;;;8.30;99.90;;;;;;4838878;29;20163;-88
2022/11/26 11:52:26;;;;;;;38.22;16.30;;;8.40;99.90;;;;;;4810075;29;20409;-89
2022/11/26 11:55:51;;;;;;;34.13;17.27;;;8.40;99.90;;;;;;4839481;29;20137;-88
2022/11/26 11:58:43;;;;;;;38.90;17.23;;;8.50;99.90;;;;;;4823432;29;20088;-88
2022/11/26 12:01:25;;;;;;;31.08;16.58;;;8.50;99.90;;;;;;4808814;29;20390;-88
2022/11/26 12:04:38;;;;;;;38.10;18.88;;;8.50;99.90;;;;;;4824007;29;20042;-89
2022/11/26 12:07:33;;;;;;;33.58;16.30;;;8.50;99.90;;;;;;4823390;29;20088;-90
2022/11/26 12:10:18;;;;;;;35.17;18.08;;;8.50;99.90;;;;;;4824780;29;20046;-89
2022/11/26 12:12:55;;;;;;;31.88;16.48;;;8.50;99.90;;;;;;4805908;29;20123;-89
2022/11/26 12:15:42;;;;;;;31.70;15.73;;;8.60;99.90;;;;;;4807307;29;21740;-88
2022/11/26 12:18:18;;;;;;;31.05;16.42;;;8.60;99.90;;;;;;4822153;29;20211;-88
2022/11/26 12:20:50;;;;;;;32.10;17.27;;;8.60;99.90;;;;;;4841142;29;20061;-88
2022/11/26 12:23:37;;;;;;;32.70;16.75;;;8.60;99.90;;;;;;4823664;29;20581;-88
2022/11/26 12:26:15;;;;;;;32.72;16.55;;;9.40;99.90;;;;;;4824414;29;20076;-88
2022/11/26 12:29:01;;;;;;;39.10;17.85;;;8.60;99.90;;;;;;4823072;29;21806;-88
2022/11/26 12:31:56;;;;;;;37.47;15.50;;;8.60;99.90;;;;;;4809667;29;20125;-88
2022/11/26 12:35:08;;;;;;;36.55;16.83;;;8.60;99.90;;;;;;4841536;29;20060;-89
2022/11/26 12:38:17;;;;;;;33.30;15.55;;;9.20;99.90;;;;;;4822232;29;20115;-88
2022/11/26 12:41:06;;;;;;;39.13;15.38;;;8.70;99.90;;;;;;4808976;29;20136;-89
2022/11/26 12:44:15;;;;;;;35.08;14.55;;;9.00;99.90;;;;;;4824802;29;20048;-88
2022/11/26 12:47:13;;;;;;;37.40;15.77;;;8.70;99.90;;;;;;4826123;29;20565;-88
2022/11/26 12:54:12;;;;;;;27.38;14.25;;;8.80;99.90;;;;;;4749553;30;20059;-89
2022/11/26 12:57:00;;;;;;;30.42;14.05;;;8.90;99.90;;;;;;4694956;30;20053;-89
2022/11/26 13:03:15;;;;;;;30.80;13.95;;;8.80;99.90;;;;;;4735314;30;20071;-87
2022/11/26 13:06:54;;;;;;;30.27;13.80;;;8.80;99.90;;;;;;4726171;30;20129;-90
2022/11/26 13:10:00;;;;;;;32.25;14.30;;;9.40;99.90;;;;;;4645672;30;20065;-87
2022/11/26 13:12:49;;;;;;;32.75;13.75;;;8.90;99.90;;;;;;4697389;30;20103;-87
2022/11/26 13:16:09;;;;;;;32.47;13.18;;;8.90;99.90;;;;;;4681593;30;20437;-87
2022/11/26 13:23:24;;;;;;;27.60;12.95;;;8.40;99.90;;;;;;4697895;30;20532;-89
2022/11/26 13:31:00;;;;;;;33.28;12.35;;;9.80;99.90;;;;;;4721478;30;20072;-87
2022/11/26 13:34:02;;;;;;;28.80;12.88;;;8.80;99.90;;;;;;4711175;30;20126;-86
2022/11/26 13:37:13;;;;;;;29.67;12.75;;;9.00;99.90;;;;;;4711351;30;20057;-86
2022/11/26 13:51:21;;;;;;;28.10;13.38;;;9.00;99.90;;;;;;4821553;29;20110;-86
2022/11/26 13:54:19;;;;;;;31.30;13.75;;;9.00;99.90;;;;;;4837508;29;20095;-86
2022/11/26 14:04:48;;;;;;;27.35;12.73;;;9.30;99.90;;;;;;4823021;29;20054;-88
2022/11/26 14:07:19;;;;;;;28.15;11.98;;;8.80;99.90;;;;;;4824045;29;20048;-86
2022/11/26 14:09:54;;;;;;;29.02;12.63;;;8.70;99.90;;;;;;4837412;29;20455;-86
2022/11/26 14:13:32;;;;;;;34.33;15.35;;;8.80;99.90;;;;;;4838972;29;20042;-86
2022/11/26 14:16:10;;;;;;;29.88;13.43;;;8.70;99.90;;;;;;4774044;29;20051;-86
2022/11/26 14:19:01;;;;;;;35.38;14.02;;;8.70;99.90;;;;;;4821388;29;20135;-86
2022/11/26 14:21:38;;;;;;;;;;;;;;;;;;;;;
2022/11/26 14:24:35;;;;;;;28.67;13.82;;;8.50;99.90;;;;;;4820643;29;20550;-86
2022/11/26 14:27:07;;;;;;;27.83;12.05;;;8.40;99.90;;;;;;4819500;29;20620;-88
2022/11/26 14:29:32;;;;;;;39.08;13.10;;;9.00;99.90;;;;;;4824218;29;20045;-88
2022/11/26 14:31:58;;;;;;;29.25;13.77;;;8.60;99.90;;;;;;4841532;29;20580;-90
2022/11/26 14:35:01;;;;;;;28.58;13.63;;;8.70;99.90;;;;;;4826420;29;20490;-90
2022/11/26 14:37:30;;;;;;;31.30;12.27;;;8.10;99.90;;;;;;4838141;29;20054;-87
2022/11/26 14:40:27;;;;;;;24.75;13.68;;;8.80;99.90;;;;;;4825256;29;20418;-87
2022/11/26 14:43:06;;;;;;;36.95;15.48;;;8.60;99.90;;;;;;4825039;29;20049;-87
2022/11/26 14:46:11;;;;;;;32.25;14.45;;;8.50;99.90;;;;;;4837945;29;20073;-88
2022/11/26 14:48:45;;;;;;;34.95;13.13;;;8.50;99.90;;;;;;4821925;29;20045;-87
2022/11/26 14:51:18;;;;;;;33.80;13.07;;;8.60;99.90;;;;;;4823546;29;20041;-86
2022/11/26 14:53:50;;;;;;;;;;;8.60;99.90;;;;;;4837463;29;20161;-86